sensor_id;sensor_type;location;lat;lon;timestamp;temperature;humidity
7399;DHT22;3740;50.700;7.184;2023-04-15T00:00:23;8.80;99.90
7399;DHT22;3740;50.700;7.184;2023-04-15T00:02:50;8.70;99.90
7399;DHT22;3740;50.700;7.184;2023-04-15T00:05:15;8.50;99.90
7399;DHT22;3740;50.700;7.184;2023-04-15T00:07:41;8.40;99.90
7399;DHT22;3740;50.700;7.184;2023-04-15T00:10:07;8.40;99.90
7399;DHT22;3740;50.700;7.184;2023-04-15T00:12:33;8.50;99.90
7399;DHT22;3740;50.700;7.184;2023-04-15T00:14:59;8.60;99.90
7399;DHT22;3740;50.700;7.184;2023-04-15T00:17:24;8.60;99.90
7399;DHT22;3740;50.700;7.184;2023-04-15T00:19:50;8.60;99.90
7399;DHT22;3740;50.700;7.184;2023-04-15T00:22:15;8.40;99.90
7399;DHT22;3740;50.700;7.184;2023-04-15T00:24:42;8.20;99.90
7399;DHT22;3740;50.700;7.184;2023-04-15T00:27:07;8.10;99.90
7399;DHT22;3740;50.700;7.184;2023-04-15T00:29:33;8.20;99.90
7399;DHT22;3740;50.700;7.184;2023-04-15T00:31:59;8.30;99.90
7399;DHT22;3740;50.700;7.184;2023-04-15T00:34:26;8.40;99.90
7399;DHT22;3740;50.700;7.184;2023-04-15T00:36:52;8.40;99.90
7399;DHT22;3740;50.700;7.184;2023-04-15T00:39:17;8.30;99.90
7399;DHT22;3740;50.700;7.184;2023-04-15T00:41:43;8.10;99.90
7399;DHT22;3740;50.700;7.184;2023-04-15T00:44:09;8.00;99.90
7399;DHT22;3740;50.700;7.184;2023-04-15T00:46:36;8.00;99.90
7399;DHT22;3740;50.700;7.184;2023-04-15T00:49:06;8.20;99.90
7399;DHT22;3740;50.700;7.184;2023-04-15T00:51:32;8.20;99.90
7399;DHT22;3740;50.700;7.184;2023-04-15T00:54:01;8.20;99.90
7399;DHT22;3740;50.700;7.184;2023-04-15T00:56:28;8.10;99.90
7399;DHT22;3740;50.700;7.184;2023-04-15T00:58:54;8.00;99.90
7399;DHT22;3740;50.700;7.184;2023-04-15T01:01:21;7.80;99.90
7399;DHT22;3740;50.700;7.184;2023-04-15T01:03:49;7.70;99.90
7399;DHT22;3740;50.700;7.184;2023-04-15T01:06:16;7.90;99.90
7399;DHT22;3740;50.700;7.184;2023-04-15T01:08:41;7.90;99.90
7399;DHT22;3740;50.700;7.184;2023-04-15T01:11:07;8.00;99.90
7399;DHT22;3740;50.700;7.184;2023-04-15T01:13:33;8.10;99.90
7399;DHT22;3740;50.700;7.184;2023-04-15T01:16:01;8.00;99.90
7399;DHT22;3740;50.700;7.184;2023-04-15T01:18:28;7.80;99.90
7399;DHT22;3740;50.700;7.184;2023-04-15T01:20:53;7.60;99.90
7399;DHT22;3740;50.700;7.184;2023-04-15T01:23:20;7.60;99.90
7399;DHT22;3740;50.700;7.184;2023-04-15T01:25:50;7.70;99.90
7399;DHT22;3740;50.700;7.184;2023-04-15T01:28:17;7.80;99.90
7399;DHT22;3740;50.700;7.184;2023-04-15T01:30:43;7.90;99.90
7399;DHT22;3740;50.700;7.184;2023-04-15T01:33:09;7.80;99.90
7399;DHT22;3740;50.700;7.184;2023-04-15T01:35:34;7.60;99.90
7399;DHT22;3740;50.700;7.184;2023-04-15T01:38:10;7.40;99.90
7399;DHT22;3740;50.700;7.184;2023-04-15T01:40:36;7.30;99.90
7399;DHT22;3740;50.700;7.184;2023-04-15T01:43:02;7.40;99.90
7399;DHT22;3740;50.700;7.184;2023-04-15T01:45:28;7.50;99.90
7399;DHT22;3740;50.700;7.184;2023-04-15T01:47:54;7.60;99.90
7399;DHT22;3740;50.700;7.184;2023-04-15T01:50:20;7.70;99.90
7399;DHT22;3740;50.700;7.184;2023-04-15T01:52:46;7.50;99.90
7399;DHT22;3740;50.700;7.184;2023-04-15T01:55:13;7.40;99.90
7399;DHT22;3740;50.700;7.184;2023-04-15T01:57:39;7.20;99.90
7399;DHT22;3740;50.700;7.184;2023-04-15T02:00:05;7.10;99.90
7399;DHT22;3740;50.700;7.184;2023-04-15T02:02:32;7.20;99.90
7399;DHT22;3740;50.700;7.184;2023-04-15T02:04:58;7.30;99.90
7399;DHT22;3740;50.700;7.184;2023-04-15T02:07:23;7.40;99.90
7399;DHT22;3740;50.700;7.184;2023-04-15T02:09:49;7.50;99.90
7399;DHT22;3740;50.700;7.184;2023-04-15T02:12:15;7.30;99.90
7399;DHT22;3740;50.700;7.184;2023-04-15T02:14:40;7.20;99.90
7399;DHT22;3740;50.700;7.184;2023-04-15T02:17:06;7.00;99.90
7399;DHT22;3740;50.700;7.184;2023-04-15T02:19:35;6.90;99.90
7399;DHT22;3740;50.700;7.184;2023-04-15T02:22:01;7.00;99.90
7399;DHT22;3740;50.700;7.184;2023-04-15T02:24:27;7.10;99.90
7399;DHT22;3740;50.700;7.184;2023-04-15T02:26:53;7.20;99.90
7399;DHT22;3740;50.700;7.184;2023-04-15T02:29:18;7.10;99.90
7399;DHT22;3740;50.700;7.184;2023-04-15T02:31:44;7.00;99.90
7399;DHT22;3740;50.700;7.184;2023-04-15T02:34:10;6.80;99.90
7399;DHT22;3740;50.700;7.184;2023-04-15T02:36:36;6.70;99.90
7399;DHT22;3740;50.700;7.184;2023-04-15T02:39:02;6.70;99.90
7399;DHT22;3740;50.700;7.184;2023-04-15T02:41:28;6.70;99.90
7399;DHT22;3740;50.700;7.184;2023-04-15T02:43:54;6.90;99.90
7399;DHT22;3740;50.700;7.184;2023-04-15T02:46:20;7.10;99.90
7399;DHT22;3740;50.700;7.184;2023-04-15T02:48:47;7.00;99.90
7399;DHT22;3740;50.700;7.184;2023-04-15T02:51:17;6.90;99.90
7399;DHT22;3740;50.700;7.184;2023-04-15T02:53:47;6.70;99.90
7399;DHT22;3740;50.700;7.184;2023-04-15T02:56:14;6.50;99.90
7399;DHT22;3740;50.700;7.184;2023-04-15T02:58:40;6.60;99.90
7399;DHT22;3740;50.700;7.184;2023-04-15T03:01:06;6.70;99.90
7399;DHT22;3740;50.700;7.184;2023-04-15T03:03:33;6.80;99.90
7399;DHT22;3740;50.700;7.184;2023-04-15T03:05:59;6.90;99.90
7399;DHT22;3740;50.700;7.184;2023-04-15T03:08:24;7.00;99.90
7399;DHT22;3740;50.700;7.184;2023-04-15T03:10:50;6.70;99.90
7399;DHT22;3740;50.700;7.184;2023-04-15T03:13:17;6.60;99.90
7399;DHT22;3740;50.700;7.184;2023-04-15T03:15:42;6.50;99.90
7399;DHT22;3740;50.700;7.184;2023-04-15T03:18:08;6.50;99.90
7399;DHT22;3740;50.700;7.184;2023-04-15T03:20:33;6.60;99.90
7399;DHT22;3740;50.700;7.184;2023-04-15T03:23:00;6.80;99.90
7399;DHT22;3740;50.700;7.184;2023-04-15T03:25:25;6.80;99.90
7399;DHT22;3740;50.700;7.184;2023-04-15T03:27:51;6.80;99.90
7399;DHT22;3740;50.700;7.184;2023-04-15T03:30:17;6.60;99.90
7399;DHT22;3740;50.700;7.184;2023-04-15T03:32:42;6.40;99.90
7399;DHT22;3740;50.700;7.184;2023-04-15T03:35:08;6.30;99.90
7399;DHT22;3740;50.700;7.184;2023-04-15T03:37:34;6.30;99.90
7399;DHT22;3740;50.700;7.184;2023-04-15T03:40:00;6.40;99.90
7399;DHT22;3740;50.700;7.184;2023-04-15T03:42:25;6.60;99.90
7399;DHT22;3740;50.700;7.184;2023-04-15T03:44:51;6.70;99.90
7399;DHT22;3740;50.700;7.184;2023-04-15T03:47:17;6.70;99.90
7399;DHT22;3740;50.700;7.184;2023-04-15T03:49:42;6.60;99.90
7399;DHT22;3740;50.700;7.184;2023-04-15T03:52:08;6.50;99.90
7399;DHT22;3740;50.700;7.184;2023-04-15T03:54:33;6.30;99.90
7399;DHT22;3740;50.700;7.184;2023-04-15T03:56:59;6.10;99.90
7399;DHT22;3740;50.700;7.184;2023-04-15T03:59:24;6.30;99.90
7399;DHT22;3740;50.700;7.184;2023-04-15T04:01:50;6.50;99.90
7399;DHT22;3740;50.700;7.184;2023-04-15T04:04:15;6.50;99.90
7399;DHT22;3740;50.700;7.184;2023-04-15T04:06:41;6.60;99.90
7399;DHT22;3740;50.700;7.184;2023-04-15T04:09:06;6.40;99.90
7399;DHT22;3740;50.700;7.184;2023-04-15T04:11:32;6.30;99.90
7399;DHT22;3740;50.700;7.184;2023-04-15T04:13:58;6.10;99.90
7399;DHT22;3740;50.700;7.184;2023-04-15T04:16:23;5.80;99.90
7399;DHT22;3740;50.700;7.184;2023-04-15T04:18:49;5.90;99.90
7399;DHT22;3740;50.700;7.184;2023-04-15T04:21:15;6.10;99.90
7399;DHT22;3740;50.700;7.184;2023-04-15T04:23:40;6.30;99.90
7399;DHT22;3740;50.700;7.184;2023-04-15T04:26:06;6.40;99.90
7399;DHT22;3740;50.700;7.184;2023-04-15T04:28:31;6.40;99.90
7399;DHT22;3740;50.700;7.184;2023-04-15T04:30:57;6.30;99.90
7399;DHT22;3740;50.700;7.184;2023-04-15T04:33:23;6.10;99.90
7399;DHT22;3740;50.700;7.184;2023-04-15T04:35:48;5.90;99.90
7399;DHT22;3740;50.700;7.184;2023-04-15T04:38:14;5.80;99.90
7399;DHT22;3740;50.700;7.184;2023-04-15T04:40:40;5.90;99.90
7399;DHT22;3740;50.700;7.184;2023-04-15T04:43:05;6.10;99.90
7399;DHT22;3740;50.700;7.184;2023-04-15T04:45:31;6.20;99.90
7399;DHT22;3740;50.700;7.184;2023-04-15T04:47:57;6.30;99.90
7399;DHT22;3740;50.700;7.184;2023-04-15T04:50:22;6.20;99.90
7399;DHT22;3740;50.700;7.184;2023-04-15T04:52:48;6.00;99.90
7399;DHT22;3740;50.700;7.184;2023-04-15T04:55:13;5.90;99.90
7399;DHT22;3740;50.700;7.184;2023-04-15T04:57:39;5.80;99.90
7399;DHT22;3740;50.700;7.184;2023-04-15T05:00:06;5.80;99.90
7399;DHT22;3740;50.700;7.184;2023-04-15T05:02:32;5.90;99.90
7399;DHT22;3740;50.700;7.184;2023-04-15T05:04:58;6.10;99.90
7399;DHT22;3740;50.700;7.184;2023-04-15T05:07:23;6.30;99.90
7399;DHT22;3740;50.700;7.184;2023-04-15T05:09:49;6.20;99.90
7399;DHT22;3740;50.700;7.184;2023-04-15T05:12:15;6.10;99.90
7399;DHT22;3740;50.700;7.184;2023-04-15T05:14:40;5.90;99.90
7399;DHT22;3740;50.700;7.184;2023-04-15T05:17:07;5.70;99.90
7399;DHT22;3740;50.700;7.184;2023-04-15T05:19:32;5.70;99.90
7399;DHT22;3740;50.700;7.184;2023-04-15T05:21:58;5.90;99.90
7399;DHT22;3740;50.700;7.184;2023-04-15T05:24:23;6.10;99.90
7399;DHT22;3740;50.700;7.184;2023-04-15T05:26:49;6.20;99.90
7399;DHT22;3740;50.700;7.184;2023-04-15T05:29:15;6.30;99.90
7399;DHT22;3740;50.700;7.184;2023-04-15T05:31:41;6.30;99.90
7399;DHT22;3740;50.700;7.184;2023-04-15T05:34:07;6.20;99.90
7399;DHT22;3740;50.700;7.184;2023-04-15T05:36:33;6.10;99.90
7399;DHT22;3740;50.700;7.184;2023-04-15T05:38:58;6.10;99.90
7399;DHT22;3740;50.700;7.184;2023-04-15T05:41:24;6.20;99.90
7399;DHT22;3740;50.700;7.184;2023-04-15T05:43:49;6.50;99.90
7399;DHT22;3740;50.700;7.184;2023-04-15T05:46:15;6.80;99.90
7399;DHT22;3740;50.700;7.184;2023-04-15T05:48:40;6.90;99.90
7399;DHT22;3740;50.700;7.184;2023-04-15T05:51:06;6.60;99.90
7399;DHT22;3740;50.700;7.184;2023-04-15T05:53:31;6.40;99.90
7399;DHT22;3740;50.700;7.184;2023-04-15T05:55:57;6.40;99.90
7399;DHT22;3740;50.700;7.184;2023-04-15T05:58:22;6.40;99.90
7399;DHT22;3740;50.700;7.184;2023-04-15T06:00:48;6.70;99.90
7399;DHT22;3740;50.700;7.184;2023-04-15T06:03:14;7.10;99.90
7399;DHT22;3740;50.700;7.184;2023-04-15T06:05:40;7.50;99.90
7399;DHT22;3740;50.700;7.184;2023-04-15T06:08:06;7.70;99.90
7399;DHT22;3740;50.700;7.184;2023-04-15T06:10:34;7.90;99.90
7399;DHT22;3740;50.700;7.184;2023-04-15T06:13:01;7.80;99.90
7399;DHT22;3740;50.700;7.184;2023-04-15T06:15:28;7.80;99.90
7399;DHT22;3740;50.700;7.184;2023-04-15T06:17:53;7.80;99.90
7399;DHT22;3740;50.700;7.184;2023-04-15T06:20:19;8.00;99.90
7399;DHT22;3740;50.700;7.184;2023-04-15T06:22:45;8.20;99.90
7399;DHT22;3740;50.700;7.184;2023-04-15T06:25:10;8.40;99.90
7399;DHT22;3740;50.700;7.184;2023-04-15T06:27:36;8.50;99.90
7399;DHT22;3740;50.700;7.184;2023-04-15T06:30:02;8.50;99.90
7399;DHT22;3740;50.700;7.184;2023-04-15T06:32:28;8.30;99.90
7399;DHT22;3740;50.700;7.184;2023-04-15T06:34:53;8.10;99.90
7399;DHT22;3740;50.700;7.184;2023-04-15T06:37:19;8.20;99.90
7399;DHT22;3740;50.700;7.184;2023-04-15T06:39:45;8.30;99.90
7399;DHT22;3740;50.700;7.184;2023-04-15T06:42:10;8.50;99.90
7399;DHT22;3740;50.700;7.184;2023-04-15T06:44:36;8.60;99.90
7399;DHT22;3740;50.700;7.184;2023-04-15T06:47:02;8.80;99.90
7399;DHT22;3740;50.700;7.184;2023-04-15T06:49:28;8.80;99.90
7399;DHT22;3740;50.700;7.184;2023-04-15T06:51:54;8.80;99.90
7399;DHT22;3740;50.700;7.184;2023-04-15T06:54:19;8.70;99.90
7399;DHT22;3740;50.700;7.184;2023-04-15T06:56:45;8.90;99.90
7399;DHT22;3740;50.700;7.184;2023-04-15T06:59:11;9.00;99.90
7399;DHT22;3740;50.700;7.184;2023-04-15T07:01:37;9.10;99.90
7399;DHT22;3740;50.700;7.184;2023-04-15T07:04:03;9.20;99.90
7399;DHT22;3740;50.700;7.184;2023-04-15T07:06:29;8.90;99.90
7399;DHT22;3740;50.700;7.184;2023-04-15T07:08:55;8.70;99.90
7399;DHT22;3740;50.700;7.184;2023-04-15T07:11:20;8.80;99.90
7399;DHT22;3740;50.700;7.184;2023-04-15T07:13:46;9.00;99.90
7399;DHT22;3740;50.700;7.184;2023-04-15T07:16:11;9.30;99.90
7399;DHT22;3740;50.700;7.184;2023-04-15T07:18:37;9.50;99.90
7399;DHT22;3740;50.700;7.184;2023-04-15T07:21:03;9.40;99.90
7399;DHT22;3740;50.700;7.184;2023-04-15T07:23:29;9.30;99.90
7399;DHT22;3740;50.700;7.184;2023-04-15T07:25:54;9.40;99.90
7399;DHT22;3740;50.700;7.184;2023-04-15T07:28:21;9.60;99.90
7399;DHT22;3740;50.700;7.184;2023-04-15T07:30:47;10.00;99.90
7399;DHT22;3740;50.700;7.184;2023-04-15T07:33:13;10.10;99.90
7399;DHT22;3740;50.700;7.184;2023-04-15T07:35:38;10.20;99.90
7399;DHT22;3740;50.700;7.184;2023-04-15T07:38:04;10.30;99.90
7399;DHT22;3740;50.700;7.184;2023-04-15T07:40:29;10.40;99.90
7399;DHT22;3740;50.700;7.184;2023-04-15T07:42:55;10.40;99.90
7399;DHT22;3740;50.700;7.184;2023-04-15T07:45:22;10.70;99.90
7399;DHT22;3740;50.700;7.184;2023-04-15T07:47:48;10.80;99.90
7399;DHT22;3740;50.700;7.184;2023-04-15T07:50:15;11.10;99.90
7399;DHT22;3740;50.700;7.184;2023-04-15T07:52:41;11.10;99.90
7399;DHT22;3740;50.700;7.184;2023-04-15T07:55:08;11.20;99.90
7399;DHT22;3740;50.700;7.184;2023-04-15T07:57:34;11.30;99.90
7399;DHT22;3740;50.700;7.184;2023-04-15T08:00:00;11.40;99.90
7399;DHT22;3740;50.700;7.184;2023-04-15T08:02:27;11.40;99.90
7399;DHT22;3740;50.700;7.184;2023-04-15T08:04:52;11.30;99.90
7399;DHT22;3740;50.700;7.184;2023-04-15T08:07:18;11.40;99.90
7399;DHT22;3740;50.700;7.184;2023-04-15T08:09:44;11.20;99.90
7399;DHT22;3740;50.700;7.184;2023-04-15T08:12:10;11.10;99.90
7399;DHT22;3740;50.700;7.184;2023-04-15T08:14:38;11.30;99.90
7399;DHT22;3740;50.700;7.184;2023-04-15T08:17:04;11.40;99.90
7399;DHT22;3740;50.700;7.184;2023-04-15T08:19:30;11.70;99.90
7399;DHT22;3740;50.700;7.184;2023-04-15T08:21:55;11.80;99.90
7399;DHT22;3740;50.700;7.184;2023-04-15T08:24:21;12.00;99.90
7399;DHT22;3740;50.700;7.184;2023-04-15T08:26:47;11.70;99.90
7399;DHT22;3740;50.700;7.184;2023-04-15T08:29:12;11.50;99.90
7399;DHT22;3740;50.700;7.184;2023-04-15T08:31:38;11.70;99.90
7399;DHT22;3740;50.700;7.184;2023-04-15T08:34:04;11.80;99.90
7399;DHT22;3740;50.700;7.184;2023-04-15T08:36:30;11.80;99.90
7399;DHT22;3740;50.700;7.184;2023-04-15T08:38:56;11.90;99.90
7399;DHT22;3740;50.700;7.184;2023-04-15T08:41:24;11.90;99.90
7399;DHT22;3740;50.700;7.184;2023-04-15T08:43:56;12.00;99.90
7399;DHT22;3740;50.700;7.184;2023-04-15T08:46:22;12.20;99.90
7399;DHT22;3740;50.700;7.184;2023-04-15T08:48:48;12.20;99.90
7399;DHT22;3740;50.700;7.184;2023-04-15T08:51:16;12.30;99.90
7399;DHT22;3740;50.700;7.184;2023-04-15T08:53:43;12.20;99.90
7399;DHT22;3740;50.700;7.184;2023-04-15T08:56:09;12.30;99.90
7399;DHT22;3740;50.700;7.184;2023-04-15T08:58:36;12.10;99.90
7399;DHT22;3740;50.700;7.184;2023-04-15T09:01:02;12.10;99.90
7399;DHT22;3740;50.700;7.184;2023-04-15T09:03:28;12.00;99.90
7399;DHT22;3740;50.700;7.184;2023-04-15T09:05:54;12.20;99.90
7399;DHT22;3740;50.700;7.184;2023-04-15T09:08:20;12.40;99.90
7399;DHT22;3740;50.700;7.184;2023-04-15T09:10:46;12.50;99.90
7399;DHT22;3740;50.700;7.184;2023-04-15T09:13:12;12.60;99.90
7399;DHT22;3740;50.700;7.184;2023-04-15T09:15:38;12.80;99.90
7399;DHT22;3740;50.700;7.184;2023-04-15T09:18:04;12.90;99.90
7399;DHT22;3740;50.700;7.184;2023-04-15T09:20:30;13.00;99.90
7399;DHT22;3740;50.700;7.184;2023-04-15T09:23:11;13.30;99.90
7399;DHT22;3740;50.700;7.184;2023-04-15T09:25:39;13.60;99.90
7399;DHT22;3740;50.700;7.184;2023-04-15T09:28:07;13.80;99.90
7399;DHT22;3740;50.700;7.184;2023-04-15T09:30:33;13.90;99.90
7399;DHT22;3740;50.700;7.184;2023-04-15T09:33:00;14.00;99.90
7399;DHT22;3740;50.700;7.184;2023-04-15T09:35:26;13.80;99.90
7399;DHT22;3740;50.700;7.184;2023-04-15T09:37:53;13.90;99.90
7399;DHT22;3740;50.700;7.184;2023-04-15T09:40:37;13.80;99.80
7399;DHT22;3740;50.700;7.184;2023-04-15T09:43:04;13.90;99.90
7399;DHT22;3740;50.700;7.184;2023-04-15T09:45:31;14.00;98.30
7399;DHT22;3740;50.700;7.184;2023-04-15T09:47:58;13.90;99.90
7399;DHT22;3740;50.700;7.184;2023-04-15T09:50:27;14.00;99.40
7399;DHT22;3740;50.700;7.184;2023-04-15T09:52:53;13.90;99.10
7399;DHT22;3740;50.700;7.184;2023-04-15T09:55:19;13.80;98.20
7399;DHT22;3740;50.700;7.184;2023-04-15T09:57:45;14.00;98.30
7399;DHT22;3740;50.700;7.184;2023-04-15T10:00:14;14.10;98.80
7399;DHT22;3740;50.700;7.184;2023-04-15T10:02:40;14.30;98.60
7399;DHT22;3740;50.700;7.184;2023-04-15T10:05:09;14.20;99.40
7399;DHT22;3740;50.700;7.184;2023-04-15T10:07:37;14.20;99.30
7399;DHT22;3740;50.700;7.184;2023-04-15T10:10:03;14.10;98.40
7399;DHT22;3740;50.700;7.184;2023-04-15T10:12:30;14.10;98.80
7399;DHT22;3740;50.700;7.184;2023-04-15T10:14:59;14.10;98.60
7399;DHT22;3740;50.700;7.184;2023-04-15T10:17:29;14.10;99.10
7399;DHT22;3740;50.700;7.184;2023-04-15T10:20:03;14.40;98.30
7399;DHT22;3740;50.700;7.184;2023-04-15T10:22:30;14.50;96.80
7399;DHT22;3740;50.700;7.184;2023-04-15T10:24:56;14.70;97.20
7399;DHT22;3740;50.700;7.184;2023-04-15T10:27:23;14.70;97.80
7399;DHT22;3740;50.700;7.184;2023-04-15T10:29:53;14.80;97.40
7399;DHT22;3740;50.700;7.184;2023-04-15T10:32:19;14.70;96.70
7399;DHT22;3740;50.700;7.184;2023-04-15T10:34:47;14.70;98.50
7399;DHT22;3740;50.700;7.184;2023-04-15T10:37:19;14.90;97.30
7399;DHT22;3740;50.700;7.184;2023-04-15T10:39:45;15.30;97.90
7399;DHT22;3740;50.700;7.184;2023-04-15T10:42:13;15.70;97.70
7399;DHT22;3740;50.700;7.184;2023-04-15T10:44:48;15.90;96.80
7399;DHT22;3740;50.700;7.184;2023-04-15T10:47:18;15.80;96.50
7399;DHT22;3740;50.700;7.184;2023-04-15T10:49:51;16.70;96.10
7399;DHT22;3740;50.700;7.184;2023-04-15T10:52:22;17.60;94.50
7399;DHT22;3740;50.700;7.184;2023-04-15T10:54:47;17.90;92.00
7399;DHT22;3740;50.700;7.184;2023-04-15T10:57:21;18.60;90.90
7399;DHT22;3740;50.700;7.184;2023-04-15T11:02:46;17.70;90.20
7399;DHT22;3740;50.700;7.184;2023-04-15T11:05:16;17.80;91.60
7399;DHT22;3740;50.700;7.184;2023-04-15T11:12:58;18.80;90.40
7399;DHT22;3740;50.700;7.184;2023-04-15T11:15:34;18.90;89.90
7399;DHT22;3740;50.700;7.184;2023-04-15T11:18:24;18.80;90.40
7399;DHT22;3740;50.700;7.184;2023-04-15T11:20:52;18.30;91.60
7399;DHT22;3740;50.700;7.184;2023-04-15T11:23:34;17.70;92.80
7399;DHT22;3740;50.700;7.184;2023-04-15T11:26:02;17.00;94.10
7399;DHT22;3740;50.700;7.184;2023-04-15T11:28:30;15.90;95.50
7399;DHT22;3740;50.700;7.184;2023-04-15T11:30:57;15.60;98.30
7399;DHT22;3740;50.700;7.184;2023-04-15T11:33:23;15.30;98.40
7399;DHT22;3740;50.700;7.184;2023-04-15T11:35:51;14.40;99.00
7399;DHT22;3740;50.700;7.184;2023-04-15T11:38:17;14.90;99.70
7399;DHT22;3740;50.700;7.184;2023-04-15T11:40:44;14.70;99.90
7399;DHT22;3740;50.700;7.184;2023-04-15T11:43:18;14.60;99.90
7399;DHT22;3740;50.700;7.184;2023-04-15T11:45:49;14.30;99.90
7399;DHT22;3740;50.700;7.184;2023-04-15T11:48:16;14.30;99.90
7399;DHT22;3740;50.700;7.184;2023-04-15T11:50:41;14.40;99.90
7399;DHT22;3740;50.700;7.184;2023-04-15T11:53:10;14.20;99.90
7399;DHT22;3740;50.700;7.184;2023-04-15T11:55:46;14.00;99.90
7399;DHT22;3740;50.700;7.184;2023-04-15T11:58:20;13.80;99.90
7399;DHT22;3740;50.700;7.184;2023-04-15T12:00:54;13.90;99.90
7399;DHT22;3740;50.700;7.184;2023-04-15T12:03:29;13.80;99.90
7399;DHT22;3740;50.700;7.184;2023-04-15T12:06:02;14.10;99.90
7399;DHT22;3740;50.700;7.184;2023-04-15T12:11:16;14.20;99.90
7399;DHT22;3740;50.700;7.184;2023-04-15T12:13:49;14.00;99.90
7399;DHT22;3740;50.700;7.184;2023-04-15T12:16:18;13.70;99.90
7399;DHT22;3740;50.700;7.184;2023-04-15T12:18:54;13.80;99.90
7399;DHT22;3740;50.700;7.184;2023-04-15T12:21:27;14.00;99.90
7399;DHT22;3740;50.700;7.184;2023-04-15T12:24:01;14.00;99.90
7399;DHT22;3740;50.700;7.184;2023-04-15T12:26:33;14.10;99.90
7399;DHT22;3740;50.700;7.184;2023-04-15T12:29:04;14.10;99.90
7399;DHT22;3740;50.700;7.184;2023-04-15T12:31:30;13.80;99.90
7399;DHT22;3740;50.700;7.184;2023-04-15T12:33:56;13.50;99.90
7399;DHT22;3740;50.700;7.184;2023-04-15T12:36:22;13.40;99.90
7399;DHT22;3740;50.700;7.184;2023-04-15T12:38:48;13.30;99.90
7399;DHT22;3740;50.700;7.184;2023-04-15T12:41:14;13.30;99.90
7399;DHT22;3740;50.700;7.184;2023-04-15T12:43:40;13.30;99.90
7399;DHT22;3740;50.700;7.184;2023-04-15T12:46:06;13.50;99.90
7399;DHT22;3740;50.700;7.184;2023-04-15T12:48:33;13.50;99.90
7399;DHT22;3740;50.700;7.184;2023-04-15T12:50:59;13.50;99.90
7399;DHT22;3740;50.700;7.184;2023-04-15T12:53:24;13.40;99.90
7399;DHT22;3740;50.700;7.184;2023-04-15T12:55:50;13.50;99.90
7399;DHT22;3740;50.700;7.184;2023-04-15T12:58:16;13.40;99.90
7399;DHT22;3740;50.700;7.184;2023-04-15T13:00:42;13.20;99.90
7399;DHT22;3740;50.700;7.184;2023-04-15T13:03:07;12.90;99.90
7399;DHT22;3740;50.700;7.184;2023-04-15T13:05:33;12.90;99.90
7399;DHT22;3740;50.700;7.184;2023-04-15T13:07:58;13.00;99.90
7399;DHT22;3740;50.700;7.184;2023-04-15T13:10:24;13.20;99.90
7399;DHT22;3740;50.700;7.184;2023-04-15T13:12:50;13.30;99.90
7399;DHT22;3740;50.700;7.184;2023-04-15T13:15:18;13.40;99.90
7399;DHT22;3740;50.700;7.184;2023-04-15T13:17:45;13.30;99.90
7399;DHT22;3740;50.700;7.184;2023-04-15T13:20:11;13.00;99.90
7399;DHT22;3740;50.700;7.184;2023-04-15T13:22:36;13.00;99.90
7399;DHT22;3740;50.700;7.184;2023-04-15T13:25:02;13.30;99.90
7399;DHT22;3740;50.700;7.184;2023-04-15T13:27:28;13.30;99.90
7399;DHT22;3740;50.700;7.184;2023-04-15T13:29:53;13.40;99.90
7399;DHT22;3740;50.700;7.184;2023-04-15T13:32:20;13.40;99.90
7399;DHT22;3740;50.700;7.184;2023-04-15T13:34:45;13.40;99.90
7399;DHT22;3740;50.700;7.184;2023-04-15T13:37:11;13.40;99.90
7399;DHT22;3740;50.700;7.184;2023-04-15T13:39:36;13.50;99.90
7399;DHT22;3740;50.700;7.184;2023-04-15T13:42:02;13.50;99.90
7399;DHT22;3740;50.700;7.184;2023-04-15T13:44:28;13.50;99.90
7399;DHT22;3740;50.700;7.184;2023-04-15T13:46:53;13.60;99.90
7399;DHT22;3740;50.700;7.184;2023-04-15T13:49:19;13.20;99.90
7399;DHT22;3740;50.700;7.184;2023-04-15T13:51:44;13.00;99.90
7399;DHT22;3740;50.700;7.184;2023-04-15T13:54:10;12.90;99.90
7399;DHT22;3740;50.700;7.184;2023-04-15T13:56:36;13.00;99.90
7399;DHT22;3740;50.700;7.184;2023-04-15T13:59:01;13.00;99.90
7399;DHT22;3740;50.700;7.184;2023-04-15T14:01:28;12.80;99.90
7399;DHT22;3740;50.700;7.184;2023-04-15T14:03:53;12.60;99.90
7399;DHT22;3740;50.700;7.184;2023-04-15T14:06:19;12.40;99.90
7399;DHT22;3740;50.700;7.184;2023-04-15T14:08:45;12.40;99.90
7399;DHT22;3740;50.700;7.184;2023-04-15T14:11:10;12.40;99.90
7399;DHT22;3740;50.700;7.184;2023-04-15T14:13:36;12.40;99.90
7399;DHT22;3740;50.700;7.184;2023-04-15T14:16:02;12.50;99.90
7399;DHT22;3740;50.700;7.184;2023-04-15T14:18:27;12.50;99.90
7399;DHT22;3740;50.700;7.184;2023-04-15T14:20:54;12.40;99.90
7399;DHT22;3740;50.700;7.184;2023-04-15T14:23:20;12.50;99.90
7399;DHT22;3740;50.700;7.184;2023-04-15T14:25:45;12.70;99.90
7399;DHT22;3740;50.700;7.184;2023-04-15T14:28:11;12.80;99.90
7399;DHT22;3740;50.700;7.184;2023-04-15T14:30:37;12.90;99.90
7399;DHT22;3740;50.700;7.184;2023-04-15T14:33:02;12.90;99.90
7399;DHT22;3740;50.700;7.184;2023-04-15T14:35:28;12.60;99.90
7399;DHT22;3740;50.700;7.184;2023-04-15T14:37:54;12.30;99.90
7399;DHT22;3740;50.700;7.184;2023-04-15T14:40:20;12.30;99.90
7399;DHT22;3740;50.700;7.184;2023-04-15T14:42:45;12.30;99.90
7399;DHT22;3740;50.700;7.184;2023-04-15T14:45:11;12.50;99.90
7399;DHT22;3740;50.700;7.184;2023-04-15T14:47:36;12.50;99.90
7399;DHT22;3740;50.700;7.184;2023-04-15T14:50:02;12.30;99.90
7399;DHT22;3740;50.700;7.184;2023-04-15T14:52:30;12.10;99.90
7399;DHT22;3740;50.700;7.184;2023-04-15T14:54:57;11.70;99.90
7399;DHT22;3740;50.700;7.184;2023-04-15T14:57:23;11.80;99.90
7399;DHT22;3740;50.700;7.184;2023-04-15T14:59:48;11.90;99.90
7399;DHT22;3740;50.700;7.184;2023-04-15T15:02:15;11.90;99.90
7399;DHT22;3740;50.700;7.184;2023-04-15T15:04:40;12.10;99.90
7399;DHT22;3740;50.700;7.184;2023-04-15T15:07:06;12.00;99.90
7399;DHT22;3740;50.700;7.184;2023-04-15T15:09:31;11.90;99.90
7399;DHT22;3740;50.700;7.184;2023-04-15T15:11:57;11.80;99.90
7399;DHT22;3740;50.700;7.184;2023-04-15T15:14:22;11.80;99.90
7399;DHT22;3740;50.700;7.184;2023-04-15T15:16:48;11.80;99.90
7399;DHT22;3740;50.700;7.184;2023-04-15T15:19:14;11.70;99.90
7399;DHT22;3740;50.700;7.184;2023-04-15T15:21:39;11.80;99.90
7399;DHT22;3740;50.700;7.184;2023-04-15T15:24:05;11.70;99.90
7399;DHT22;3740;50.700;7.184;2023-04-15T15:26:30;11.60;99.90
7399;DHT22;3740;50.700;7.184;2023-04-15T15:28:56;11.70;99.90
7399;DHT22;3740;50.700;7.184;2023-04-15T15:31:21;11.70;99.90
7399;DHT22;3740;50.700;7.184;2023-04-15T15:33:47;11.80;99.90
7399;DHT22;3740;50.700;7.184;2023-04-15T15:36:13;11.90;99.90
7399;DHT22;3740;50.700;7.184;2023-04-15T15:38:39;11.90;99.90
7399;DHT22;3740;50.700;7.184;2023-04-15T15:41:05;12.00;99.90
7399;DHT22;3740;50.700;7.184;2023-04-15T15:43:30;12.00;99.90
7399;DHT22;3740;50.700;7.184;2023-04-15T15:45:56;12.00;99.90
7399;DHT22;3740;50.700;7.184;2023-04-15T15:48:23;12.10;99.90
7399;DHT22;3740;50.700;7.184;2023-04-15T15:50:48;12.20;99.90
7399;DHT22;3740;50.700;7.184;2023-04-15T15:53:14;12.10;99.90
7399;DHT22;3740;50.700;7.184;2023-04-15T15:55:46;12.10;99.90
7399;DHT22;3740;50.700;7.184;2023-04-15T15:58:12;12.00;99.90
7399;DHT22;3740;50.700;7.184;2023-04-15T16:00:38;11.70;99.90
7399;DHT22;3740;50.700;7.184;2023-04-15T16:03:03;11.50;99.90
7399;DHT22;3740;50.700;7.184;2023-04-15T16:05:29;11.50;99.90
7399;DHT22;3740;50.700;7.184;2023-04-15T16:07:54;11.50;99.90
7399;DHT22;3740;50.700;7.184;2023-04-15T16:10:20;11.60;99.90
7399;DHT22;3740;50.700;7.184;2023-04-15T16:12:46;11.70;99.90
7399;DHT22;3740;50.700;7.184;2023-04-15T16:15:11;11.70;99.90